createdAt,value
2023-04-16T00:00:16.597Z,7.30
2023-04-16T00:02:48.470Z,7.20
2023-04-16T00:05:20.274Z,7.20
2023-04-16T00:07:53.007Z,7.10
2023-04-16T00:10:24.810Z,7.10
2023-04-16T00:12:56.585Z,7.10
2023-04-16T00:15:28.374Z,7.10
2023-04-16T00:18:00.136Z,7.10
2023-04-16T00:20:31.961Z,7.10
2023-04-16T00:23:03.748Z,7.10
2023-04-16T00:25:35.481Z,7.10
2023-04-16T00:28:07.792Z,7.00
2023-04-16T00:30:40.636Z,7.00
2023-04-16T00:33:14.609Z,7.00
2023-04-16T00:35:46.965Z,7.00
2023-04-16T00:38:18.817Z,7.00
2023-04-16T00:40:50.849Z,7.00
2023-04-16T00:43:23.182Z,7.00
2023-04-16T00:45:56.715Z,7.00
2023-04-16T00:48:28.571Z,7.00
2023-04-16T00:51:01.742Z,7.00
2023-04-16T00:53:34.524Z,7.00
2023-04-16T00:56:07.146Z,7.00
2023-04-16T00:58:39.376Z,7.00
2023-04-16T01:01:11.406Z,7.00
2023-04-16T01:03:49.336Z,7.00
2023-04-16T01:06:23.810Z,7.00
2023-04-16T01:08:55.642Z,7.00
2023-04-16T01:11:27.414Z,6.90
2023-04-16T01:13:59.221Z,6.90
2023-04-16T01:16:31.056Z,7.00
2023-04-16T01:19:03.036Z,6.90
2023-04-16T01:21:34.826Z,6.90
2023-04-16T01:24:09.092Z,6.90
2023-04-16T01:26:41.350Z,6.90
2023-04-16T01:29:13.164Z,6.90
2023-04-16T01:31:46.807Z,6.90
2023-04-16T01:34:18.707Z,6.80
2023-04-16T01:36:51.200Z,6.80
2023-04-16T01:39:22.946Z,6.80
2023-04-16T01:41:54.718Z,6.80
2023-04-16T01:44:26.558Z,6.80
2023-04-16T01:46:58.446Z,6.80
2023-04-16T01:49:30.316Z,6.80
2023-04-16T01:52:02.097Z,6.70
2023-04-16T01:54:33.875Z,6.70
2023-04-16T01:57:07.962Z,6.70
2023-04-16T01:59:40.044Z,6.70
2023-04-16T02:02:13.003Z,6.70
2023-04-16T02:04:45.516Z,6.70
2023-04-16T02:07:17.304Z,6.70
2023-04-16T02:09:50.898Z,6.70
2023-04-16T02:12:22.671Z,6.70
2023-04-16T02:14:54.532Z,6.60
2023-04-16T02:17:26.365Z,6.70
2023-04-16T02:19:58.140Z,6.70
2023-04-16T02:22:32.252Z,6.60
2023-04-16T02:25:06.604Z,6.60
2023-04-16T02:27:38.354Z,6.60
2023-04-16T02:30:10.808Z,6.70
2023-04-16T02:32:42.568Z,6.60
2023-04-16T02:35:14.408Z,6.60
2023-04-16T02:37:46.352Z,6.60
2023-04-16T02:40:18.205Z,6.60
2023-04-16T02:42:49.970Z,6.60
2023-04-16T02:45:21.887Z,6.60
2023-04-16T02:47:53.728Z,6.60
2023-04-16T02:50:25.567Z,6.60
2023-04-16T02:52:57.360Z,6.60
2023-04-16T02:55:31.559Z,6.60
2023-04-16T02:58:03.493Z,6.60
2023-04-16T03:00:35.597Z,6.60
2023-04-16T03:03:07.848Z,6.60
2023-04-16T03:05:40.421Z,6.60
2023-04-16T03:08:12.344Z,6.50
2023-04-16T03:10:44.116Z,6.50
2023-04-16T03:13:18.319Z,6.50
2023-04-16T03:15:50.473Z,6.50
2023-04-16T03:18:24.585Z,6.50
2023-04-16T03:20:56.419Z,6.40
2023-04-16T03:23:28.515Z,6.40
2023-04-16T03:26:00.425Z,6.40
2023-04-16T03:28:32.183Z,6.40
2023-04-16T03:31:04.066Z,6.40
2023-04-16T03:33:35.890Z,6.30
2023-04-16T03:36:07.815Z,6.30
2023-04-16T03:38:39.588Z,6.30
2023-04-16T03:41:11.501Z,6.30
2023-04-16T03:43:45.942Z,6.30
2023-04-16T03:46:17.796Z,6.30
2023-04-16T03:48:49.592Z,6.30
2023-04-16T03:51:21.406Z,6.30
2023-04-16T03:53:53.163Z,6.30
2023-04-16T03:56:25.002Z,6.30
2023-04-16T03:58:56.747Z,6.20
2023-04-16T04:01:28.551Z,6.20
2023-04-16T04:04:02.888Z,6.20
2023-04-16T04:06:34.975Z,6.20
2023-04-16T04:09:06.968Z,6.20
2023-04-16T04:11:38.799Z,6.20
2023-04-16T04:14:10.818Z,6.20
2023-04-16T04:16:42.774Z,6.20
2023-04-16T04:19:14.599Z,6.20
2023-04-16T04:21:46.385Z,6.20
2023-04-16T04:24:18.112Z,6.20
2023-04-16T04:26:49.873Z,6.20
2023-04-16T04:29:23.783Z,6.20
2023-04-16T04:31:59.123Z,6.20
2023-04-16T04:34:31.125Z,6.10
2023-04-16T04:37:05.877Z,6.10
2023-04-16T04:39:39.856Z,6.10
2023-04-16T04:42:11.733Z,6.10
2023-04-16T04:44:43.521Z,6.10
2023-04-16T04:47:15.503Z,6.10
2023-04-16T04:49:47.295Z,6.10
2023-04-16T04:52:20.589Z,6.10
2023-04-16T04:54:52.655Z,6.10
2023-04-16T04:57:26.638Z,6.10
2023-04-16T04:59:58.403Z,6.10
2023-04-16T05:02:30.332Z,6.10
2023-04-16T05:05:02.268Z,6.10
2023-04-16T05:07:34.159Z,6.00
2023-04-16T05:10:06.304Z,6.00
2023-04-16T05:12:38.270Z,6.00
2023-04-16T05:15:10.504Z,6.00
2023-04-16T05:17:42.365Z,6.00
2023-04-16T05:20:16.278Z,6.00
2023-04-16T05:22:48.043Z,6.00
2023-04-16T05:25:19.871Z,6.00
2023-04-16T05:27:51.653Z,6.10
2023-04-16T05:30:23.414Z,6.00
2023-04-16T05:33:00.239Z,6.10
2023-04-16T05:35:32.125Z,6.10
2023-04-16T05:38:04.600Z,6.10
2023-04-16T05:40:36.368Z,6.00
2023-04-16T05:43:08.127Z,6.10
2023-04-16T05:45:42.060Z,6.10
2023-04-16T05:48:14.025Z,6.10
2023-04-16T05:50:46.541Z,6.10
2023-04-16T05:53:19.114Z,6.10
2023-04-16T05:55:50.989Z,6.20
2023-04-16T05:58:22.780Z,6.20
2023-04-16T06:00:54.634Z,6.20
2023-04-16T06:03:26.553Z,6.20
2023-04-16T06:05:58.506Z,6.20
2023-04-16T06:08:30.362Z,6.20
2023-04-16T06:11:02.157Z,6.20
2023-04-16T06:13:34.044Z,6.20
2023-04-16T06:16:08.185Z,6.20
2023-04-16T06:18:42.479Z,6.20
2023-04-16T06:21:14.322Z,6.30
2023-04-16T06:23:46.166Z,6.20
2023-04-16T06:26:20.728Z,6.20
2023-04-16T06:28:54.902Z,6.30
2023-04-16T06:31:26.724Z,6.30
2023-04-16T06:33:58.588Z,6.30
2023-04-16T06:36:31.279Z,6.40
2023-04-16T06:39:03.285Z,6.40
2023-04-16T06:41:35.124Z,6.40
2023-04-16T06:44:06.906Z,6.40
2023-04-16T06:46:38.680Z,6.50
2023-04-16T06:49:10.724Z,6.50
2023-04-16T06:51:42.638Z,6.40
2023-04-16T06:54:14.461Z,6.50
2023-04-16T06:56:46.333Z,6.50
2023-04-16T06:59:18.310Z,6.50
2023-04-16T07:01:51.775Z,6.60
2023-04-16T07:04:26.217Z,6.70
2023-04-16T07:06:58.064Z,6.70
2023-04-16T07:09:29.874Z,6.70
2023-04-16T07:12:01.729Z,6.80
2023-04-16T07:14:33.553Z,6.80
2023-04-16T07:17:05.635Z,6.90
2023-04-16T07:19:37.487Z,6.90
2023-04-16T07:22:09.261Z,6.90
2023-04-16T07:24:43.465Z,6.90
2023-04-16T07:27:15.210Z,7.00
2023-04-16T07:29:47.097Z,7.00
2023-04-16T07:32:18.944Z,7.10
2023-04-16T07:34:51.087Z,7.10
2023-04-16T07:37:22.901Z,7.20
2023-04-16T07:39:57.581Z,7.30
2023-04-16T07:42:29.445Z,7.30
2023-04-16T07:45:01.346Z,7.30
2023-04-16T07:47:33.171Z,7.20
2023-04-16T07:50:08.264Z,7.20
2023-04-16T07:52:41.507Z,7.30
2023-04-16T07:55:13.576Z,7.30
2023-04-16T07:57:45.329Z,7.20
2023-04-16T08:00:19.783Z,7.30
2023-04-16T08:02:51.611Z,7.40
2023-04-16T08:05:23.805Z,7.60
2023-04-16T08:07:55.764Z,7.70
2023-04-16T08:10:27.960Z,7.80
2023-04-16T08:13:02.851Z,7.90
2023-04-16T08:15:34.710Z,8.00
2023-04-16T08:18:12.782Z,8.00
2023-04-16T08:20:44.638Z,8.10
2023-04-16T08:23:18.794Z,8.20
2023-04-16T08:25:52.498Z,8.50
2023-04-16T08:28:24.836Z,8.60
2023-04-16T08:30:58.949Z,8.70
2023-04-16T08:33:33.329Z,8.60
2023-04-16T08:36:05.685Z,8.60
2023-04-16T08:38:37.550Z,8.60
2023-04-16T08:41:12.159Z,8.50
2023-04-16T08:43:44.761Z,8.50
2023-04-16T08:46:17.714Z,8.60
2023-04-16T08:48:52.111Z,8.50
2023-04-16T08:51:27.447Z,8.60
2023-04-16T08:54:02.867Z,8.80
2023-04-16T08:56:36.673Z,8.80
2023-04-16T08:59:09.645Z,8.80
2023-04-16T09:01:42.096Z,8.90
2023-04-16T09:04:17.114Z,8.80
2023-04-16T09:06:49.780Z,8.80
2023-04-16T09:09:22.630Z,9.00
2023-04-16T09:11:54.844Z,9.10
2023-04-16T09:14:26.947Z,9.20
2023-04-16T09:17:01.283Z,9.30
2023-04-16T09:19:33.038Z,9.20
2023-04-16T09:22:04.899Z,9.20
2023-04-16T09:24:38.602Z,9.10
2023-04-16T09:27:14.152Z,8.90
2023-04-16T09:29:46.311Z,8.90
2023-04-16T09:32:18.283Z,8.90
2023-04-16T09:35:04.908Z,8.70
2023-04-16T09:37:36.740Z,8.70
2023-04-16T09:40:11.382Z,8.50
2023-04-16T09:42:43.251Z,8.40
2023-04-16T09:45:15.006Z,8.40
2023-04-16T09:47:46.898Z,8.50
2023-04-16T09:50:21.438Z,8.50
2023-04-16T09:52:55.382Z,8.50
2023-04-16T09:55:27.673Z,8.50
2023-04-16T09:58:02.431Z,8.50
2023-04-16T10:00:34.199Z,8.30
2023-04-16T10:03:07.241Z,8.40
2023-04-16T10:05:39.426Z,8.40
2023-04-16T10:08:12.262Z,8.60
2023-04-16T10:10:44.494Z,8.70
2023-04-16T10:13:17.817Z,8.70
2023-04-16T10:15:50.033Z,8.60
2023-04-16T10:18:22.314Z,8.70
2023-04-16T10:20:54.048Z,8.70
2023-04-16T10:23:26.699Z,8.90
2023-04-16T10:26:01.739Z,8.90
2023-04-16T10:28:35.514Z,9.00
2023-04-16T10:31:08.208Z,9.00
2023-04-16T10:33:40.802Z,9.00
2023-04-16T10:36:16.864Z,8.90
2023-04-16T10:38:59.751Z,9.10
2023-04-16T10:41:33.487Z,9.10
2023-04-16T10:44:09.959Z,9.00
2023-04-16T10:46:42.782Z,8.80
2023-04-16T10:49:19.283Z,8.90
2023-04-16T10:51:57.053Z,8.90
2023-04-16T10:54:29.732Z,9.10
2023-04-16T10:57:05.448Z,9.00
2023-04-16T10:59:37.921Z,9.00
2023-04-16T11:02:16.168Z,8.90
2023-04-16T11:05:03.355Z,8.90
2023-04-16T11:07:36.102Z,8.90
2023-04-16T11:10:12.923Z,9.10
2023-04-16T11:12:58.240Z,9.10
2023-04-16T11:15:31.630Z,9.10
2023-04-16T11:18:04.242Z,9.10
2023-04-16T11:20:36.317Z,9.10
2023-04-16T11:23:11.037Z,9.00
2023-04-16T11:25:45.267Z,9.20
2023-04-16T11:28:20.727Z,9.30
2023-04-16T11:30:52.587Z,9.30
2023-04-16T11:33:25.250Z,9.30
2023-04-16T11:35:59.011Z,9.40
2023-04-16T11:38:35.206Z,9.40
2023-04-16T11:41:07.392Z,9.50
2023-04-16T11:43:39.194Z,9.40
2023-04-16T11:46:24.137Z,9.30
2023-04-16T11:49:00.112Z,9.30
2023-04-16T11:51:32.560Z,9.30
2023-04-16T11:54:04.445Z,9.20
2023-04-16T11:56:37.298Z,9.10
2023-04-16T11:59:15.392Z,9.00
2023-04-16T12:01:48.388Z,8.90
2023-04-16T12:04:20.915Z,8.90
2023-04-16T12:07:12.274Z,9.10
2023-04-16T12:09:44.081Z,9.20
2023-04-16T12:12:28.711Z,9.30
2023-04-16T12:15:03.787Z,9.50
2023-04-16T12:17:38.793Z,9.70
2023-04-16T12:20:11.816Z,9.60
2023-04-16T12:22:47.836Z,9.70
2023-04-16T12:25:19.640Z,9.70
2023-04-16T12:27:56.015Z,9.60
2023-04-16T12:30:28.238Z,9.70
2023-04-16T12:33:16.793Z,9.70
2023-04-16T12:35:48.569Z,9.60
2023-04-16T12:38:22.789Z,9.20
2023-04-16T12:40:57.659Z,9.10
2023-04-16T12:43:29.566Z,9.00
2023-04-16T12:46:04.148Z,8.80
2023-04-16T12:48:36.330Z,8.80
2023-04-16T12:51:08.116Z,9.00
2023-04-16T12:53:39.897Z,9.10
2023-04-16T12:56:11.637Z,9.10
2023-04-16T12:58:43.409Z,9.10
2023-04-16T13:01:15.187Z,9.30
2023-04-16T13:03:47.339Z,9.10
2023-04-16T13:06:20.030Z,9.00
2023-04-16T13:08:51.808Z,8.80
2023-04-16T13:11:23.647Z,8.90
2023-04-16T13:13:55.528Z,8.80
2023-04-16T13:16:27.475Z,8.90
2023-04-16T13:18:59.304Z,8.80
2023-04-16T13:21:33.655Z,8.80
2023-04-16T13:24:05.646Z,8.90
2023-04-16T13:26:37.441Z,9.00
2023-04-16T13:29:09.790Z,9.20
2023-04-16T13:31:41.815Z,9.20
2023-04-16T13:34:13.756Z,9.30
2023-04-16T13:36:45.537Z,9.30
2023-04-16T13:39:17.700Z,9.10
2023-04-16T13:41:50.431Z,9.10
2023-04-16T13:44:22.201Z,9.00
2023-04-16T13:46:56.357Z,8.90
2023-04-16T13:49:28.413Z,8.90
2023-04-16T13:52:01.019Z,8.70
2023-04-16T13:54:33.128Z,8.60
2023-04-16T13:57:04.984Z,8.70
2023-04-16T13:59:36.853Z,8.90
2023-04-16T14:02:09.684Z,9.10
2023-04-16T14:04:44.364Z,9.10
2023-04-16T14:07:16.386Z,9.10
2023-04-16T14:09:48.162Z,8.90
2023-04-16T14:12:20.079Z,9.00
2023-04-16T14:14:51.962Z,9.00
2023-04-16T14:17:23.751Z,9.10
2023-04-16T14:19:57.836Z,9.10
2023-04-16T14:22:32.052Z,9.10
2023-04-16T14:25:04.024Z,9.00
2023-04-16T14:27:36.924Z,8.90
2023-04-16T14:30:09.515Z,8.60
2023-04-16T14:32:41.396Z,8.70
2023-04-16T14:35:13.304Z,8.80
2023-04-16T14:37:45.207Z,8.90
2023-04-16T14:40:21.498Z,8.80
2023-04-16T14:42:54.502Z,8.80
2023-04-16T14:45:30.030Z,8.80
2023-04-16T14:48:02.165Z,8.80
2023-04-16T14:50:43.556Z,8.70
2023-04-16T14:53:16.411Z,8.50
2023-04-16T14:55:48.430Z,8.60
2023-04-16T14:58:20.369Z,8.70
2023-04-16T15:00:52.270Z,8.70
2023-04-16T15:03:26.820Z,8.80
2023-04-16T15:05:58.770Z,8.80
2023-04-16T15:08:30.799Z,8.80
2023-04-16T15:11:05.213Z,8.60
2023-04-16T15:13:36.988Z,8.60
2023-04-16T15:16:08.767Z,8.60
2023-04-16T15:18:40.605Z,8.40
2023-04-16T15:21:12.808Z,8.30
2023-04-16T15:23:44.664Z,8.30
2023-04-16T15:26:16.623Z,8.30
2023-04-16T15:28:48.515Z,8.20
2023-04-16T15:31:22.930Z,8.10
2023-04-16T15:33:56.183Z,8.00
2023-04-16T15:36:28.337Z,8.00
2023-04-16T15:39:00.111Z,7.90
2023-04-16T15:41:32.095Z,7.90
2023-04-16T15:44:09.495Z,7.90
2023-04-16T15:46:41.726Z,7.90
2023-04-16T15:49:15.968Z,7.90
2023-04-16T15:51:50.094Z,8.00
2023-04-16T15:54:21.895Z,8.10
2023-04-16T15:56:55.896Z,8.00
2023-04-16T15:59:27.665Z,7.90
2023-04-16T16:01:59.593Z,7.80
2023-04-16T16:04:36.755Z,7.80
2023-04-16T16:07:09.489Z,7.80
2023-04-16T16:09:41.358Z,7.80
2023-04-16T16:12:13.411Z,7.80
2023-04-16T16:14:45.253Z,7.80
2023-04-16T16:17:17.828Z,7.80
2023-04-16T16:19:49.659Z,7.80
2023-04-16T16:22:23.701Z,7.80
2023-04-16T16:24:56.086Z,7.70
2023-04-16T16:27:28.034Z,7.70
2023-04-16T16:30:02.081Z,7.60
2023-04-16T16:32:34.056Z,7.50
2023-04-16T16:35:06.100Z,7.60
2023-04-16T16:37:38.276Z,7.60
2023-04-16T16:40:10.434Z,7.50
2023-04-16T16:42:42.856Z,7.40
2023-04-16T16:45:14.742Z,7.30
2023-04-16T16:47:46.994Z,7.10
2023-04-16T16:50:18.989Z,7.10
2023-04-16T16:52:50.879Z,7.00
2023-04-16T16:55:25.027Z,7.00
2023-04-16T16:57:57.490Z,6.90
2023-04-16T17:00:29.296Z,6.90
2023-04-16T17:03:01.424Z,6.90
2023-04-16T17:05:33.431Z,6.70
2023-04-16T17:08:06.895Z,6.60
2023-04-16T17:10:38.693Z,6.60
2023-04-16T17:13:10.720Z,6.60
2023-04-16T17:15:42.549Z,6.60
2023-04-16T17:18:14.484Z,6.50
2023-04-16T17:20:46.265Z,6.40
2023-04-16T17:23:18.054Z,6.40
2023-04-16T17:25:50.128Z,6.40
2023-04-16T17:28:21.924Z,6.40
2023-04-16T17:30:54.251Z,6.50
2023-04-16T17:33:26.145Z,6.40
2023-04-16T17:35:57.896Z,6.40
2023-04-16T17:38:29.838Z,6.30
2023-04-16T17:41:01.589Z,6.20
2023-04-16T17:43:33.458Z,6.10
2023-04-16T17:46:05.450Z,6.10
2023-04-16T17:48:38.706Z,6.00
2023-04-16T17:51:14.457Z,6.00
2023-04-16T17:53:46.329Z,6.00
2023-04-16T17:56:18.056Z,6.00
2023-04-16T17:58:51.996Z,6.00
2023-04-16T18:01:27.480Z,6.00
2023-04-16T18:03:59.639Z,5.90
2023-04-16T18:06:31.748Z,5.90
2023-04-16T18:09:06.327Z,5.90
2023-04-16T18:11:38.120Z,5.90
2023-04-16T18:14:11.854Z,5.90
2023-04-16T18:16:46.140Z,5.90
2023-04-16T18:19:18.032Z,5.90
2023-04-16T18:21:50.593Z,5.80
2023-04-16T18:24:23.510Z,5.90
2023-04-16T18:26:57.273Z,5.80
2023-04-16T18:29:29.371Z,5.80
2023-04-16T18:32:04.428Z,5.80
2023-04-16T18:34:36.944Z,5.90
2023-04-16T18:37:08.990Z,5.90
2023-04-16T18:39:43.945Z,5.90
2023-04-16T18:42:18.551Z,5.90
2023-04-16T18:44:54.102Z,5.90
2023-04-16T18:47:30.508Z,5.90
2023-04-16T18:50:02.460Z,5.80
2023-04-16T18:52:35.350Z,5.70
2023-04-16T18:55:07.842Z,5.70
2023-04-16T18:57:39.787Z,5.70
2023-04-16T19:00:13.707Z,5.70
2023-04-16T19:02:46.119Z,5.70
2023-04-16T19:05:21.269Z,5.70
2023-04-16T19:07:57.537Z,5.70
2023-04-16T19:10:29.877Z,5.70
2023-04-16T19:13:01.944Z,5.70
2023-04-16T19:15:34.911Z,5.70
2023-04-16T19:18:08.285Z,5.70
2023-04-16T19:20:40.217Z,5.60
2023-04-16T19:23:14.210Z,5.60
2023-04-16T19:25:46.801Z,5.60
2023-04-16T19:28:18.939Z,5.60
2023-04-16T19:30:53.742Z,5.60
2023-04-16T19:33:25.859Z,5.60
2023-04-16T19:36:00.387Z,5.60
2023-04-16T19:38:32.181Z,5.50
2023-04-16T19:41:03.973Z,5.60
2023-04-16T19:43:37.048Z,5.60
2023-04-16T19:46:09.082Z,5.60
2023-04-16T19:48:43.045Z,5.60
2023-04-16T19:51:18.475Z,5.60
2023-04-16T19:53:50.497Z,5.60
2023-04-16T19:56:22.247Z,5.70
2023-04-16T19:58:58.718Z,5.70
2023-04-16T20:01:33.329Z,5.60
2023-04-16T20:04:07.213Z,5.50
2023-04-16T20:06:39.120Z,5.50
2023-04-16T20:09:11.286Z,5.50
2023-04-16T20:11:43.385Z,5.50
2023-04-16T20:14:17.315Z,5.50
2023-04-16T20:16:49.217Z,5.50
2023-04-16T20:19:22.158Z,5.50
2023-04-16T20:21:53.966Z,5.50
2023-04-16T20:24:31.065Z,5.50
2023-04-16T20:27:02.888Z,5.40
2023-04-16T20:29:34.691Z,5.40
2023-04-16T20:32:06.536Z,5.40
2023-04-16T20:34:40.661Z,5.30
2023-04-16T20:37:12.629Z,5.40
2023-04-16T20:39:45.333Z,5.40
2023-04-16T20:42:18.085Z,5.40
2023-04-16T20:44:56.380Z,5.30
2023-04-16T20:47:28.506Z,5.40
2023-04-16T20:50:01.834Z,5.30
2023-04-16T20:52:33.662Z,5.40
2023-04-16T20:55:05.863Z,5.40
2023-04-16T20:57:40.225Z,5.30
2023-04-16T21:00:12.463Z,5.30
2023-04-16T21:02:44.464Z,5.40
2023-04-16T21:05:16.378Z,5.30
2023-04-16T21:07:48.212Z,5.30
2023-04-16T21:10:21.509Z,5.30
2023-04-16T21:12:53.326Z,5.30
2023-04-16T21:15:25.157Z,5.30
2023-04-16T21:17:57.019Z,5.30
2023-04-16T21:20:30.365Z,5.30
2023-04-16T21:23:03.091Z,5.30
2023-04-16T21:25:34.855Z,5.30
2023-04-16T21:28:06.856Z,5.30
2023-04-16T21:30:38.939Z,5.30
2023-04-16T21:33:12.952Z,5.30
2023-04-16T21:35:44.806Z,5.30
2023-04-16T21:38:16.679Z,5.20
2023-04-16T21:40:54.003Z,5.20
2023-04-16T21:43:32.107Z,5.20
2023-04-16T21:46:03.960Z,5.20
2023-04-16T21:48:35.877Z,5.20
2023-04-16T21:51:08.247Z,5.20
2023-04-16T21:53:40.122Z,5.20
2023-04-16T21:56:11.941Z,5.10
2023-04-16T21:58:43.762Z,5.20
2023-04-16T22:01:16.392Z,5.20
2023-04-16T22:03:52.186Z,5.20
2023-04-16T22:06:27.274Z,5.20
2023-04-16T22:09:01.750Z,5.20
2023-04-16T22:11:33.525Z,5.20
2023-04-16T22:14:08.416Z,5.20
2023-04-16T22:16:40.418Z,5.20
2023-04-16T22:19:14.239Z,5.20
2023-04-16T22:21:46.445Z,5.10
2023-04-16T22:24:18.346Z,5.20
2023-04-16T22:26:50.130Z,5.20
2023-04-16T22:29:21.970Z,5.20
2023-04-16T22:31:56.419Z,5.20
2023-04-16T22:34:28.306Z,5.20
2023-04-16T22:37:01.522Z,5.20
2023-04-16T22:39:33.328Z,5.20
2023-04-16T22:42:05.206Z,5.20
2023-04-16T22:44:37.021Z,5.20
2023-04-16T22:47:08.817Z,5.20
2023-04-16T22:49:40.709Z,5.30
2023-04-16T22:52:12.488Z,5.30
2023-04-16T22:54:44.332Z,5.30
2023-04-16T22:57:17.492Z,5.30
2023-04-16T22:59:51.690Z,5.30
2023-04-16T23:02:26.147Z,5.30
2023-04-16T23:04:59.204Z,5.30
2023-04-16T23:07:31.105Z,5.20
2023-04-16T23:10:03.261Z,5.20
2023-04-16T23:12:37.490Z,5.30
2023-04-16T23:15:11.708Z,5.30
2023-04-16T23:17:46.320Z,5.30
2023-04-16T23:20:18.214Z,5.30
2023-04-16T23:22:52.836Z,5.30
2023-04-16T23:25:25.590Z,5.20
2023-04-16T23:27:57.459Z,5.30
2023-04-16T23:30:29.235Z,5.30
2023-04-16T23:33:03.163Z,5.30
2023-04-16T23:35:35.026Z,5.30
2023-04-16T23:38:06.784Z,5.30
2023-04-16T23:40:40.950Z,5.30
2023-04-16T23:43:12.714Z,5.30
2023-04-16T23:45:44.540Z,5.30
2023-04-16T23:48:17.010Z,5.40
2023-04-16T23:50:48.873Z,5.30
2023-04-16T23:53:20.643Z,5.40
2023-04-16T23:55:52.512Z,5.40
2023-04-16T23:58:26.914Z,5.40
